Time;durP1;ratioP1;P1;durP2;ratioP2;P2;SDS_P1;SDS_P2;PMS_P1;PMS_P2;Temp;Humidity;BMP_temperature;BMP_pressure;BME280_temperature;BME280_humidity;BME280_pressure;Samples;Min_cycle;Max_cycle;Signal;HPM_P1;HPM_P2
2023/01/24 00:00:45;;;;;;;51.03;27.77;;;6.80;48.40;;;;;;5035909;28;20939;-51
2023/01/24 00:03:15;;;;;;;56.10;26.27;;;6.80;48.40;;;;;;5036026;28;20436;-51
2023/01/24 00:05:43;;;;;;;57.25;30.20;;;6.80;48.30;;;;;;5035808;28;20847;-51
2023/01/24 00:08:12;;;;;;;55.97;27.92;;;6.80;48.20;;;;;;5035810;28;20177;-51
2023/01/24 00:10:37;;;;;;;52.72;26.67;;;6.80;48.10;;;;;;5036035;28;20181;-51
2023/01/24 00:13:04;;;;;;;55.33;28.97;;;6.80;48.20;;;;;;5035728;28;20185;-52
2023/01/24 00:15:30;;;;;;;50.13;28.17;;;6.70;48.20;;;;;;5035348;28;20445;-52
2023/01/24 00:17:55;;;;;;;51.95;26.90;;;6.80;48.20;;;;;;5035720;28;20202;-51
2023/01/24 00:20:21;;;;;;;47.53;26.30;;;6.70;48.20;;;;;;5035831;28;20755;-52
2023/01/24 00:22:47;;;;;;;47.90;26.53;;;6.80;48.30;;;;;;5035574;28;20166;-52
2023/01/24 00:25:13;;;;;;;56.03;29.60;;;6.80;48.40;;;;;;5035233;28;20490;-52
2023/01/24 00:27:39;;;;;;;54.23;28.23;;;6.70;48.40;;;;;;5035465;28;20178;-51
2023/01/24 00:30:05;;;;;;;55.23;28.87;;;6.70;48.40;;;;;;5035442;28;20420;-51
2023/01/24 00:32:31;;;;;;;61.70;29.48;;;6.80;48.30;;;;;;5035364;28;20638;-51
2023/01/24 00:34:57;;;;;;;59.50;29.50;;;6.80;48.20;;;;;;5034910;28;20292;-51
2023/01/24 00:37:23;;;;;;;59.15;29.17;;;6.80;48.20;;;;;;5035270;28;20244;-52
2023/01/24 00:39:49;;;;;;;48.53;26.70;;;6.70;48.20;;;;;;5035214;28;20507;-52
2023/01/24 00:42:14;;;;;;;53.70;30.10;;;6.70;48.30;;;;;;5035567;28;20227;-52
2023/01/24 00:44:40;;;;;;;55.67;29.40;;;6.80;48.30;;;;;;5034974;28;20186;-51
2023/01/24 00:47:06;;;;;;;57.60;26.57;;;6.80;48.30;;;;;;5035405;28;20197;-52
2023/01/24 00:49:31;;;;;;;51.30;26.73;;;6.70;48.30;;;;;;5035114;28;20656;-52
2023/01/24 00:51:57;;;;;;;59.13;29.87;;;6.80;48.30;;;;;;5035049;28;20232;-52
2023/01/24 00:54:23;;;;;;;45.80;26.13;;;6.70;48.30;;;;;;5034648;28;20210;-50
2023/01/24 00:56:49;;;;;;;56.67;27.53;;;6.80;48.30;;;;;;5035092;28;20174;-50
2023/01/24 00:59:14;;;;;;;50.07;28.17;;;6.80;48.20;;;;;;5035003;28;20177;-50
2023/01/24 01:01:40;;;;;;;59.40;29.17;;;6.80;48.20;;;;;;5033973;28;20674;-52
2023/01/24 01:04:06;;;;;;;52.93;30.07;;;6.80;48.30;;;;;;5034680;28;20240;-51
2023/01/24 01:06:32;;;;;;;59.90;31.57;;;6.70;48.20;;;;;;5034531;28;20197;-50
2023/01/24 01:08:57;;;;;;;56.97;29.00;;;6.70;48.20;;;;;;5034993;28;20169;-50
2023/01/24 01:11:24;;;;;;;60.30;28.50;;;6.70;48.20;;;;;;5034968;28;20824;-51
2023/01/24 01:13:49;;;;;;;55.40;29.25;;;6.60;48.10;;;;;;5034666;28;20174;-51
2023/01/24 01:16:18;;;;;;;66.37;29.30;;;6.60;48.20;;;;;;5034595;28;20276;-51
2023/01/24 01:18:48;;;;;;;57.13;28.52;;;6.60;48.30;;;;;;5034406;28;20416;-52
2023/01/24 01:21:16;;;;;;;56.10;26.13;;;6.60;48.40;;;;;;5034680;28;20201;-52
2023/01/24 01:23:42;;;;;;;56.95;28.83;;;6.60;48.40;;;;;;5034376;28;20530;-51
2023/01/24 01:26:13;;;;;;;55.47;29.02;;;6.60;48.50;;;;;;5034237;28;20174;-51
2023/01/24 01:28:39;;;;;;;58.42;30.27;;;6.60;48.50;;;;;;5034494;28;20654;-51
2023/01/24 01:31:05;;;;;;;68.43;34.00;;;6.60;48.60;;;;;;5034420;28;20221;-51
2023/01/24 01:33:30;;;;;;;55.73;29.17;;;6.70;48.60;;;;;;5034202;28;20273;-51
2023/01/24 01:35:56;;;;;;;57.17;29.63;;;6.70;48.60;;;;;;5034165;28;20727;-52
2023/01/24 01:38:24;;;;;;;64.37;32.43;;;6.70;48.50;;;;;;5034492;28;20177;-51
2023/01/24 01:40:50;;;;;;;55.33;30.38;;;6.70;48.50;;;;;;5034269;28;20646;-51
2023/01/24 01:43:19;;;;;;;57.53;30.75;;;6.70;48.50;;;;;;5034387;28;20625;-52
2023/01/24 01:45:50;;;;;;;60.30;29.77;;;6.70;48.40;;;;;;5034041;28;20775;-51
2023/01/24 01:48:37;;;;;;;57.45;28.98;;;6.70;48.40;;;;;;5034245;28;20154;-51
2023/01/24 01:51:30;;;;;;;48.97;26.38;;;6.70;48.40;;;;;;5033964;28;20236;-52
2023/01/24 01:54:11;;;;;;;51.47;29.15;;;6.70;48.50;;;;;;5033892;28;20202;-51
2023/01/24 01:56:43;;;;;;;58.58;29.25;;;6.70;48.40;;;;;;5033716;28;20650;-51
2023/01/24 01:59:18;;;;;;;58.38;30.83;;;6.60;48.30;;;;;;5033759;28;20638;-51
2023/01/24 02:01:45;;;;;;;65.72;32.20;;;6.70;48.30;;;;;;5033801;28;20180;-51
2023/01/24 02:04:18;;;;;;;57.50;30.15;;;6.60;48.40;;;;;;5033766;28;20194;-49
2023/01/24 02:06:59;;;;;;;54.10;29.17;;;6.70;48.50;;;;;;5033747;28;20308;-51
2023/01/24 02:09:31;;;;;;;59.17;31.58;;;6.70;48.60;;;;;;5033848;28;20293;-51
2023/01/24 02:12:01;;;;;;;52.28;26.42;;;6.70;48.50;;;;;;5033500;28;20170;-51
2023/01/24 02:17:12;;;;;;;57.35;29.77;;;6.70;48.50;;;;;;5033712;28;20518;-52
2023/01/24 02:20:05;;;;;;;60.13;27.50;;;6.70;48.50;;;;;;5033357;28;20170;-52
2023/01/24 02:22:46;;;;;;;58.45;27.30;;;6.70;48.50;;;;;;5033363;28;20408;-52
2023/01/24 02:25:24;;;;;;;51.28;28.40;;;6.70;48.50;;;;;;5033023;28;20851;-51
2023/01/24 02:27:50;;;;;;;49.97;27.15;;;6.60;48.40;;;;;;5033529;28;20174;-52
2023/01/24 02:30:16;;;;;;;50.28;26.95;;;6.70;48.50;;;;;;5032244;28;20182;-51
2023/01/24 02:32:42;;;;;;;65.40;29.87;;;6.70;48.40;;;;;;5033248;28;20676;-52
2023/01/24 02:35:25;;;;;;;55.03;28.90;;;6.70;48.40;;;;;;5032689;28;20848;-52
2023/01/24 02:37:51;;;;;;;50.42;28.23;;;6.70;48.30;;;;;;5033048;28;20174;-52
2023/01/24 02:40:17;;;;;;;51.08;27.55;;;6.70;48.30;;;;;;5032936;28;20178;-52
2023/01/24 02:42:44;;;;;;;55.85;28.98;;;6.70;48.20;;;;;;5032801;28;20682;-52
2023/01/24 02:45:12;;;;;;;47.05;26.80;;;6.70;48.20;;;;;;5032703;28;20724;-52
2023/01/24 02:47:46;;;;;;;66.03;29.40;;;6.70;48.30;;;;;;5032896;28;20275;-52
2023/01/24 02:50:12;;;;;;;55.67;28.27;;;6.70;48.30;;;;;;5032850;28;20516;-52
2023/01/24 02:55:22;;;;;;;50.20;27.65;;;6.60;48.30;;;;;;5030145;22;20244;-49
2023/01/24 02:58:06;;;;;;;56.30;25.53;;;6.60;48.30;;;;;;5012893;28;20253;-49
2023/01/24 03:00:37;;;;;;;54.22;27.27;;;6.60;48.30;;;;;;5013030;28;20433;-49
2023/01/24 03:03:03;;;;;;;50.10;28.80;;;6.60;48.30;;;;;;5012901;28;20190;-49
2023/01/24 03:05:39;;;;;;;63.33;30.02;;;6.60;48.20;;;;;;5012663;28;20190;-48
2023/01/24 03:08:08;;;;;;;54.85;28.80;;;6.60;48.30;;;;;;5012803;28;20257;-49
2023/01/24 03:10:34;;;;;;;54.33;24.60;;;6.60;48.40;;;;;;5012785;28;20184;-49
2023/01/24 03:34:55;;;;;;;55.97;28.48;;;6.40;48.70;;;;;;5012123;28;20617;-49
2023/01/24 03:40:12;;;;;;;55.45;24.92;;;6.40;48.70;;;;;;5012421;28;20220;-49
2023/01/24 03:42:46;;;;;;;56.90;28.13;;;6.40;48.70;;;;;;5012370;28;20314;-49
2023/01/24 03:45:18;;;;;;;55.90;26.77;;;6.40;48.70;;;;;;5012050;28;20705;-49
2023/01/24 03:48:04;;;;;;;56.13;29.50;;;6.50;48.70;;;;;;5012264;28;20186;-49
2023/01/24 03:53:25;;;;;;;58.58;27.08;;;6.50;48.80;;;;;;5012596;28;20204;-49
2023/01/24 03:55:53;;;;;;;61.72;27.90;;;6.40;48.70;;;;;;5011949;28;20194;-49
2023/01/24 03:58:19;;;;;;;53.28;26.10;;;6.50;48.70;;;;;;5012149;28;20638;-49
2023/01/24 04:00:45;;;;;;;52.40;26.50;;;6.40;48.70;;;;;;5012191;28;20173;-49
2023/01/24 04:03:11;;;;;;;52.80;26.47;;;6.40;48.70;;;;;;5012191;28;20917;-50
2023/01/24 04:05:36;;;;;;;51.40;28.00;;;6.40;48.60;;;;;;5011864;28;20268;-50
2023/01/24 04:08:03;;;;;;;53.27;28.27;;;6.40;48.70;;;;;;5012126;28;20174;-49
2023/01/24 04:10:29;;;;;;;61.00;26.33;;;6.50;48.70;;;;;;5012119;28;20184;-49
2023/01/24 04:12:55;;;;;;;53.88;26.25;;;6.40;48.70;;;;;;5010790;28;20638;-49
2023/01/24 04:15:24;;;;;;;54.17;27.25;;;6.40;48.70;;;;;;5011606;28;20285;-49
2023/01/24 04:17:50;;;;;;;50.95;26.08;;;6.40;48.70;;;;;;5012020;28;20174;-49
2023/01/24 04:20:17;;;;;;;48.67;28.60;;;6.40;48.70;;;;;;5012020;28;20618;-49
2023/01/24 04:22:43;;;;;;;55.00;26.17;;;6.40;48.70;;;;;;5012018;28;20181;-49
2023/01/24 04:25:09;;;;;;;56.03;26.17;;;6.40;48.70;;;;;;5011878;28;20598;-49
2023/01/24 04:27:36;;;;;;;45.42;24.98;;;6.40;48.70;;;;;;5011953;28;20171;-49
2023/01/24 04:30:08;;;;;;;57.72;27.88;;;6.40;48.80;;;;;;5011882;28;20182;-49
2023/01/24 04:32:34;;;;;;;48.33;25.35;;;6.40;48.60;;;;;;5012227;28;20622;-49
2023/01/24 04:35:00;;;;;;;53.05;28.17;;;6.40;48.70;;;;;;5011558;28;20252;-50
2023/01/24 04:37:26;;;;;;;58.70;27.73;;;6.40;48.70;;;;;;5014829;28;20175;-49
2023/01/24 04:39:52;;;;;;;56.22;27.30;;;6.40;48.60;;;;;;5015448;28;20236;-49
2023/01/24 04:42:18;;;;;;;53.70;28.80;;;6.30;48.80;;;;;;5015478;28;20690;-50
2023/01/24 04:44:43;;;;;;;48.63;23.50;;;6.30;48.90;;;;;;5015109;28;20198;-49
2023/01/24 04:47:09;;;;;;;54.77;27.60;;;6.30;49.00;;;;;;5015452;28;20167;-49
2023/01/24 04:49:35;;;;;;;54.43;29.03;;;6.30;49.00;;;;;;5015377;28;20224;-50
2023/01/24 04:52:00;;;;;;;48.67;25.90;;;6.30;49.00;;;;;;5015341;28;20166;-49
2023/01/24 04:54:26;;;;;;;56.83;26.00;;;6.30;49.00;;;;;;5014752;28;20202;-49
2023/01/24 04:56:52;;;;;;;43.50;26.30;;;6.30;49.00;;;;;;5015293;28;20174;-50
2023/01/24 04:59:18;;;;;;;54.73;25.77;;;6.30;49.00;;;;;;5015206;28;20178;-50
2023/01/24 05:01:43;;;;;;;48.00;24.40;;;6.30;49.10;;;;;;5015117;28;20622;-49
2023/01/24 05:04:09;;;;;;;51.80;25.93;;;6.30;49.10;;;;;;5015037;28;20191;-49
2023/01/24 05:06:36;;;;;;;53.83;27.40;;;6.30;49.10;;;;;;5014867;28;20599;-49
2023/01/24 05:09:02;;;;;;;46.80;23.63;;;6.30;49.10;;;;;;5014931;28;20175;-49
2023/01/24 05:11:28;;;;;;;48.97;26.30;;;6.20;49.10;;;;;;5014938;28;20261;-49
2023/01/24 05:13:53;;;;;;;47.90;27.50;;;6.30;49.20;;;;;;5014804;28;20217;-49
2023/01/24 05:16:19;;;;;;;52.67;27.50;;;6.30;49.20;;;;;;5013330;28;20205;-49
2023/01/24 05:18:45;;;;;;;48.93;25.33;;;6.30;49.20;;;;;;5014885;28;20538;-49
2023/01/24 05:21:13;;;;;;;57.23;26.53;;;6.30;49.10;;;;;;5014778;28;20217;-49
2023/01/24 05:23:39;;;;;;;47.17;24.17;;;6.30;49.10;;;;;;5014587;28;20682;-49
2023/01/24 05:26:05;;;;;;;45.10;25.40;;;6.20;49.80;;;;;;5014482;28;20189;-50
2023/01/24 05:28:31;;;;;;;51.75;25.20;;;6.20;49.20;;;;;;5014508;28;20175;-49
2023/01/24 05:31:08;;;;;;;54.00;25.83;;;6.20;49.20;;;;;;5014591;28;20178;-49
2023/01/24 05:33:34;;;;;;;44.40;23.55;;;6.30;49.30;;;;;;5014458;28;20763;-49
2023/01/24 05:36:03;;;;;;;53.17;26.08;;;6.20;49.30;;;;;;5014332;28;20216;-49
2023/01/24 05:38:29;;;;;;;44.38;26.02;;;6.30;49.40;;;;;;5014427;28;20170;-49
2023/01/24 05:41:00;;;;;;;41.13;24.23;;;6.30;49.30;;;;;;5014371;28;20193;-49
2023/01/24 05:43:26;;;;;;;48.58;23.67;;;6.30;49.30;;;;;;5014348;28;20645;-49
2023/01/24 05:45:55;;;;;;;45.07;22.03;;;6.30;49.20;;;;;;5014057;28;20177;-49
2023/01/24 05:48:21;;;;;;;47.72;22.73;;;6.30;49.20;;;;;;5013881;28;20417;-50
2023/01/24 05:50:47;;;;;;;48.97;26.73;;;6.30;49.10;;;;;;5014032;28;20181;-49
2023/01/24 05:53:14;;;;;;;54.00;25.73;;;6.30;49.00;;;;;;5014306;28;20202;-50
2023/01/24 05:55:39;;;;;;;42.60;23.37;;;6.30;49.00;;;;;;5013656;28;20286;-49
2023/01/24 05:58:05;;;;;;;43.43;22.13;;;6.30;49.00;;;;;;5014010;28;20171;-49
2023/01/24 06:00:31;;;;;;;52.77;25.47;;;6.40;49.00;;;;;;5013945;28;20167;-49
2023/01/24 06:03:01;;;;;;;45.83;24.37;;;6.30;49.10;;;;;;5013951;28;20643;-49
2023/01/24 06:05:27;;;;;;;48.90;22.80;;;6.40;49.10;;;;;;5013597;28;20209;-49
2023/01/24 06:07:53;;;;;;;55.03;23.90;;;6.30;49.00;;;;;;5013862;28;20605;-49
2023/01/24 06:10:19;;;;;;;54.67;25.57;;;6.30;49.10;;;;;;5013889;28;20177;-49
2023/01/24 06:12:44;;;;;;;51.97;24.63;;;6.30;49.00;;;;;;5013721;28;20441;-49
2023/01/24 06:15:10;;;;;;;56.87;25.77;;;6.30;49.10;;;;;;5013357;28;20207;-49
2023/01/24 06:17:36;;;;;;;47.90;25.33;;;6.40;49.10;;;;;;5013645;28;20198;-49
2023/01/24 06:20:02;;;;;;;51.40;25.93;;;6.40;49.10;;;;;;5013591;28;20406;-49
2023/01/24 06:22:47;;;;;;;44.47;22.95;;;6.40;49.00;;;;;;5013470;28;20171;-49
2023/01/24 06:25:18;;;;;;;46.83;22.98;;;6.40;48.90;;;;;;5013261;28;20209;-50
2023/01/24 06:27:44;;;;;;;52.70;24.73;;;6.40;49.00;;;;;;5013405;28;20675;-50
2023/01/24 06:30:12;;;;;;;51.60;24.20;;;6.30;49.00;;;;;;5013323;28;20206;-49
2023/01/24 06:33:02;;;;;;;49.30;23.67;;;6.30;49.00;;;;;;5012080;28;20175;-49
2023/01/24 06:36:08;;;;;;;47.55;23.80;;;6.30;49.10;;;;;;5013002;28;20245;-49
2023/01/24 06:38:34;;;;;;;43.65;23.92;;;6.30;49.10;;;;;;5013249;28;20257;-49
2023/01/24 06:41:01;;;;;;;54.15;26.65;;;6.30;49.30;;;;;;5013287;28;20174;-49
2023/01/24 06:43:28;;;;;;;46.83;23.27;;;6.30;49.40;;;;;;5013154;28;20186;-49
2023/01/24 06:45:55;;;;;;;47.72;24.05;;;6.30;49.30;;;;;;5012936;28;20548;-49
2023/01/24 06:48:21;;;;;;;53.47;26.77;;;6.40;49.10;;;;;;5013108;28;20177;-49
2023/01/24 06:50:47;;;;;;;43.70;23.20;;;6.40;49.20;;;;;;5013062;28;20279;-49
2023/01/24 06:53:14;;;;;;;40.30;21.10;;;6.40;49.30;;;;;;5012884;28;20441;-49
2023/01/24 06:55:44;;;;;;;47.15;24.77;;;6.40;49.30;;;;;;5012605;28;20211;-49
2023/01/24 06:58:10;;;;;;;45.08;22.05;;;6.50;49.20;;;;;;5012578;28;20639;-49
2023/01/24 07:00:35;;;;;;;44.43;21.23;;;6.50;49.20;;;;;;5012647;28;20221;-49
2023/01/24 07:03:07;;;;;;;38.00;20.83;;;6.50;49.10;;;;;;5012899;28;20541;-49
2023/01/24 07:05:37;;;;;;;51.15;26.27;;;6.50;49.00;;;;;;5012531;28;20532;-49
2023/01/24 07:08:04;;;;;;;39.22;21.95;;;6.50;49.00;;;;;;5012851;28;20177;-50
2023/01/24 07:10:30;;;;;;;44.00;24.92;;;6.60;48.90;;;;;;5011616;28;20170;-49
2023/01/24 07:12:56;;;;;;;46.43;24.00;;;6.60;49.00;;;;;;5012719;28;20515;-49
2023/01/24 07:15:22;;;;;;;46.20;23.30;;;6.60;48.90;;;;;;5012439;28;20525;-49
2023/01/24 07:17:48;;;;;;;43.13;23.65;;;6.60;48.90;;;;;;5012612;28;20635;-49
2023/01/24 07:20:14;;;;;;;43.20;22.85;;;6.60;48.60;;;;;;5012575;28;20254;-49
2023/01/24 07:22:42;;;;;;;45.47;23.67;;;6.60;48.50;;;;;;5012601;28;20301;-49
2023/01/24 07:25:20;;;;;;;43.88;22.63;;;6.60;48.50;;;;;;5012258;28;20191;-49
2023/01/24 07:27:46;;;;;;;43.25;22.70;;;6.60;48.70;;;;;;5012419;28;20174;-49
2023/01/24 07:30:13;;;;;;;49.30;24.83;;;6.60;48.70;;;;;;5012497;28;20175;-49
2023/01/24 07:32:39;;;;;;;47.72;23.08;;;6.60;48.70;;;;;;5012545;28;20547;-49
2023/01/24 07:35:06;;;;;;;49.03;25.20;;;6.60;48.80;;;;;;5012019;28;20195;-49
2023/01/24 07:37:31;;;;;;;50.28;26.58;;;6.60;48.90;;;;;;5012427;28;20901;-49
2023/01/24 07:39:57;;;;;;;48.10;23.97;;;6.60;48.80;;;;;;5012365;28;20186;-49
2023/01/24 07:42:23;;;;;;;41.57;21.10;;;6.60;48.70;;;;;;5012202;28;20463;-49
2023/01/24 07:44:49;;;;;;;48.55;23.45;;;6.60;48.70;;;;;;5011983;28;20206;-49
2023/01/24 07:47:15;;;;;;;41.93;23.20;;;6.60;48.80;;;;;;5012239;28;20197;-49
2023/01/24 07:49:41;;;;;;;41.27;22.27;;;6.60;48.70;;;;;;5012209;28;20410;-49
2023/01/24 07:52:06;;;;;;;40.03;21.00;;;6.70;48.70;;;;;;5012251;28;20402;-49
2023/01/24 07:54:33;;;;;;;47.03;26.20;;;6.70;48.70;;;;;;5011753;28;20198;-49
2023/01/24 07:57:00;;;;;;;39.60;22.05;;;6.70;48.60;;;;;;5012129;28;20163;-49
2023/01/24 07:59:26;;;;;;;41.95;23.10;;;6.70;48.70;;;;;;5012278;28;20534;-50
2023/01/24 08:01:51;;;;;;;50.13;22.45;;;6.70;48.70;;;;;;5012094;28;20166;-49
2023/01/24 08:04:17;;;;;;;48.97;23.23;;;6.70;48.70;;;;;;5011915;28;20297;-49
2023/01/24 08:07:16;;;;;;;39.30;20.10;;;6.60;48.60;;;;;;5012041;28;20421;-49
2023/01/24 08:09:29;;;;;;;47.33;23.27;;;6.70;48.70;;;;;;5011935;28;20179;-49
2023/01/24 08:11:55;;;;;;;40.45;21.98;;;6.60;48.60;;;;;;5015924;28;20175;-49
2023/01/24 08:14:22;;;;;;;45.17;23.52;;;6.70;48.70;;;;;;5015534;28;20212;-50
2023/01/24 08:16:48;;;;;;;42.00;22.00;;;6.70;48.70;;;;;;5015990;28;20213;-48
2023/01/24 08:19:14;;;;;;;45.10;24.00;;;6.70;49.40;;;;;;5015901;28;20495;-49
2023/01/24 08:21:40;;;;;;;45.47;22.80;;;6.80;48.70;;;;;;5015935;28;20173;-49
2023/01/24 08:24:06;;;;;;;45.53;23.27;;;6.70;48.50;;;;;;5015795;28;20505;-49
2023/01/24 08:26:32;;;;;;;43.75;22.05;;;6.70;48.60;;;;;;5015536;28;21037;-48
2023/01/24 08:28:58;;;;;;;46.43;22.50;;;6.70;48.60;;;;;;5015625;28;20175;-50
2023/01/24 08:31:24;;;;;;;44.60;23.10;;;6.70;48.60;;;;;;5015707;28;20417;-49
2023/01/24 08:33:51;;;;;;;44.33;24.80;;;6.70;48.60;;;;;;5015596;28;20705;-49
2023/01/24 08:36:19;;;;;;;39.20;22.80;;;6.70;48.60;;;;;;5015343;28;20195;-49
2023/01/24 08:38:45;;;;;;;43.05;22.98;;;6.70;48.50;;;;;;5015595;28;20198;-49
2023/01/24 08:41:11;;;;;;;52.00;24.98;;;6.70;48.50;;;;;;5015516;28;20662;-49
2023/01/24 08:43:36;;;;;;;44.47;22.40;;;6.70;48.70;;;;;;5015322;28;20170;-49
2023/01/24 08:46:02;;;;;;;48.00;21.20;;;6.70;49.50;;;;;;5015194;28;20860;-49
2023/01/24 08:48:29;;;;;;;38.63;22.07;;;6.70;48.80;;;;;;5015337;28;20455;-49
2023/01/24 08:50:55;;;;;;;39.53;22.08;;;6.70;48.60;;;;;;5015325;28;20406;-49
2023/01/24 08:53:21;;;;;;;37.50;21.57;;;6.70;48.70;;;;;;5015277;28;20171;-50
2023/01/24 08:55:50;;;;;;;45.90;24.27;;;6.80;48.80;;;;;;5014712;28;20210;-49
2023/01/24 08:58:16;;;;;;;47.78;23.38;;;6.70;48.60;;;;;;5015123;28;20163;-49
2023/01/24 09:00:42;;;;;;;46.83;23.30;;;6.80;48.70;;;;;;5015167;28;20272;-49
2023/01/24 09:03:10;;;;;;;40.80;24.98;;;6.80;48.70;;;;;;5015050;28;20170;-49
2023/01/24 09:05:38;;;;;;;47.08;21.73;;;6.80;48.80;;;;;;5014659;28;20233;-49
2023/01/24 09:08:04;;;;;;;48.97;24.88;;;6.80;48.70;;;;;;5015074;28;20175;-50
2023/01/24 09:10:30;;;;;;;47.78;23.25;;;6.80;48.60;;;;;;5014955;28;20179;-49
2023/01/24 09:12:56;;;;;;;56.43;24.67;;;6.80;48.70;;;;;;5014974;28;20196;-49
2023/01/24 09:15:22;;;;;;;40.33;22.40;;;6.80;48.70;;;;;;5014572;28;20564;-50
2023/01/24 09:17:48;;;;;;;47.50;24.20;;;6.80;48.70;;;;;;5014740;28;20406;-49
2023/01/24 09:20:13;;;;;;;54.70;26.43;;;6.80;48.70;;;;;;5014808;28;20405;-49
2023/01/24 09:22:39;;;;;;;55.00;24.13;;;6.80;48.90;;;;;;5014039;28;20193;-49
2023/01/24 09:25:07;;;;;;;49.80;25.07;;;6.80;48.60;;;;;;5014406;28;20269;-49
2023/01/24 09:27:34;;;;;;;44.65;23.23;;;6.80;48.70;;;;;;5014640;28;20414;-49
2023/01/24 09:29:59;;;;;;;50.00;24.63;;;6.80;48.70;;;;;;5014619;28;20831;-49
2023/01/24 09:32:25;;;;;;;51.30;25.40;;;6.80;48.70;;;;;;5014666;28;20233;-49
2023/01/24 09:34:51;;;;;;;43.20;23.83;;;6.80;48.80;;;;;;5014078;28;20202;-49
2023/01/24 09:37:21;;;;;;;48.03;23.77;;;6.80;48.80;;;;;;5014391;28;20174;-50
2023/01/24 09:39:47;;;;;;;44.00;24.33;;;6.80;48.70;;;;;;5014315;28;20175;-48
2023/01/24 09:42:22;;;;;;;51.30;24.90;;;6.90;48.90;;;;;;5014356;28;20175;-49
2023/01/24 09:45:02;;;;;;;46.58;23.27;;;6.90;49.70;;;;;;5014029;28;20190;-49
2023/01/24 09:47:49;;;;;;;42.05;22.80;;;7.00;49.00;;;;;;5014580;28;20198;-49
2023/01/24 09:50:45;;;;;;;46.03;24.73;;;7.00;48.80;;;;;;5014204;28;20167;-49
2023/01/24 09:53:26;;;;;;;43.38;23.45;;;7.00;48.70;;;;;;5014119;28;20708;-49
2023/01/24 09:55:53;;;;;;;55.30;26.45;;;7.00;48.70;;;;;;5013667;28;20301;-49
2023/01/24 09:58:39;;;;;;;54.38;25.17;;;7.00;48.60;;;;;;5013993;28;20183;-49
2023/01/24 10:01:12;;;;;;;46.28;22.65;;;7.00;48.70;;;;;;5014355;28;20178;-49
2023/01/24 10:03:39;;;;;;;51.50;27.00;;;7.00;48.70;;;;;;5014053;28;20175;-49
2023/01/24 10:06:24;;;;;;;48.65;23.63;;;7.00;48.70;;;;;;5013782;28;20175;-49
2023/01/24 10:08:54;;;;;;;51.28;26.23;;;7.00;48.70;;;;;;5013912;28;20178;-49
2023/01/24 10:11:23;;;;;;;49.20;23.02;;;7.10;48.70;;;;;;5013994;28;20246;-50
2023/01/24 10:14:44;;;;;;;41.28;23.40;;;7.10;48.70;;;;;;5013675;28;20606;-49
2023/01/24 10:17:34;;;;;;;50.22;25.45;;;7.10;48.60;;;;;;4972396;28;20368;-49
2023/01/24 10:20:18;;;;;;;51.13;26.23;;;7.10;48.60;;;;;;4972384;28;20184;-49
2023/01/24 10:23:03;;;;;;;59.63;29.48;;;7.00;48.70;;;;;;4972280;28;20656;-49
2023/01/24 10:25:37;;;;;;;49.10;26.90;;;7.10;48.70;;;;;;4971937;28;20283;-49
2023/01/24 10:28:03;;;;;;;88.43;38.70;;;7.10;48.70;;;;;;4972176;28;20667;-49
2023/01/24 10:30:47;;;;;;;64.90;35.50;;;7.10;48.60;;;;;;4972173;28;20176;-49
2023/01/24 10:33:18;;;;;;;65.40;32.55;;;7.10;48.60;;;;;;4971327;28;20168;-49
2023/01/24 10:35:57;;;;;;;52.05;26.80;;;7.10;48.50;;;;;;4971276;28;20325;-49
2023/01/24 10:38:23;;;;;;;52.40;25.55;;;7.10;48.40;;;;;;4972045;28;20211;-49
2023/01/24 10:40:51;;;;;;;54.15;26.10;;;7.00;48.50;;;;;;4972112;28;20187;-49
2023/01/24 10:43:17;;;;;;;48.10;27.17;;;7.10;48.60;;;;;;4971989;28;20655;-50
2023/01/24 10:46:09;;;;;;;52.30;26.25;;;7.10;48.60;;;;;;4971563;28;20203;-49
2023/01/24 10:48:51;;;;;;;45.05;23.58;;;7.10;48.70;;;;;;5003676;28;20646;-50
2023/01/24 10:51:22;;;;;;;51.15;26.55;;;7.20;48.60;;;;;;5013112;28;20222;-49
2023/01/24 10:53:49;;;;;;;52.85;25.85;;;7.10;48.60;;;;;;5013036;28;20256;-49
2023/01/24 10:56:18;;;;;;;56.40;26.90;;;7.20;48.40;;;;;;5012823;28;20218;-49
2023/01/24 10:59:04;;;;;;;57.42;25.77;;;7.10;48.30;;;;;;5012998;28;20178;-49
2023/01/24 11:01:38;;;;;;;52.70;23.10;;;7.10;49.00;;;;;;5013054;28;20238;-49
2023/01/24 11:04:23;;;;;;;48.10;26.48;;;7.10;48.50;;;;;;5012976;28;20190;-49
2023/01/24 11:06:50;;;;;;;48.78;26.17;;;7.10;48.50;;;;;;5012778;28;20543;-50
2023/01/24 11:09:23;;;;;;;51.30;26.05;;;7.10;48.60;;;;;;5012815;28;20167;-49
2023/01/24 11:11:54;;;;;;;60.70;28.15;;;7.10;48.60;;;;;;5012999;28;20182;-50
2023/01/24 11:14:26;;;;;;;52.20;27.27;;;7.10;48.50;;;;;;5012809;28;20202;-49
2023/01/24 11:16:57;;;;;;;54.95;25.73;;;7.10;48.60;;;;;;5012713;28;20206;-49
2023/01/24 11:19:32;;;;;;;52.80;24.35;;;7.20;48.60;;;;;;5012721;28;20174;-49
2023/01/24 11:22:00;;;;;;;48.53;24.77;;;7.20;48.50;;;;;;5012448;28;20156;-48
2023/01/24 11:24:28;;;;;;;48.80;25.98;;;7.20;48.50;;;;;;5012320;28;20190;-49
2023/01/24 11:27:14;;;;;;;53.38;25.75;;;7.20;48.60;;;;;;5012511;28;20221;-48
2023/01/24 11:29:40;;;;;;;54.42;25.85;;;7.20;48.40;;;;;;5012800;28;20177;-49
2023/01/24 11:32:36;;;;;;;54.67;29.43;;;7.20;48.60;;;;;;5012752;28;20542;-50
2023/01/24 11:35:19;;;;;;;42.25;24.42;;;7.30;48.50;;;;;;5011995;28;20618;-49
2023/01/24 11:38:05;;;;;;;53.60;26.42;;;7.30;48.40;;;;;;5012443;28;20161;-49
2023/01/24 11:40:42;;;;;;;51.80;24.55;;;7.30;48.20;;;;;;5012446;28;20258;-49
2023/01/24 11:43:19;;;;;;;56.38;26.30;;;7.20;48.30;;;;;;5012649;28;20232;-49
2023/01/24 11:46:00;;;;;;;44.85;24.48;;;7.20;48.60;;;;;;5011897;28;20280;-50
2023/01/24 11:48:34;;;;;;;64.47;32.85;;;7.20;48.60;;;;;;5012308;28;20515;-50
2023/01/24 11:51:08;;;;;;;53.25;27.58;;;7.30;48.70;;;;;;5012149;28;20190;-49
2023/01/24 11:53:37;;;;;;;56.08;26.63;;;7.30;48.60;;;;;;5012021;28;20721;-50
2023/01/24 11:56:30;;;;;;;53.72;26.08;;;7.30;48.50;;;;;;5011979;28;20206;-50
2023/01/24 11:58:56;;;;;;;50.58;27.15;;;7.30;48.40;;;;;;5012537;28;20162;-49
2023/01/24 12:01:43;;;;;;;55.07;28.23;;;7.30;48.40;;;;;;5012211;28;20171;-49
2023/01/24 12:04:19;;;;;;;49.25;25.92;;;7.30;48.40;;;;;;5012035;28;20677;-49
2023/01/24 12:06:54;;;;;;;54.22;26.90;;;7.40;48.40;;;;;;5011967;28;20166;-49
2023/01/24 12:09:26;;;;;;;44.63;25.65;;;7.40;48.20;;;;;;5012131;28;20197;-50
2023/01/24 12:12:19;;;;;;;44.45;25.83;;;7.40;48.10;;;;;;5012027;28;20714;-49
2023/01/24 12:15:12;;;;;;;50.92;27.52;;;7.40;48.10;;;;;;5011855;28;20844;-49
2023/01/24 12:18:01;;;;;;;56.95;24.92;;;7.40;48.10;;;;;;5012114;28;20163;-49
2023/01/24 12:21:01;;;;;;;48.45;26.30;;;7.30;48.20;;;;;;5011940;28;20167;-50
2023/01/24 12:23:42;;;;;;;50.13;23.08;;;7.40;48.00;;;;;;5012044;28;20171;-49
2023/01/24 12:26:30;;;;;;;47.38;23.70;;;7.30;48.20;;;;;;5012073;28;20159;-49
2023/01/24 12:29:14;;;;;;;48.53;26.10;;;7.30;48.20;;;;;;5011891;28;20665;-49
2023/01/24 12:31:46;;;;;;;42.58;22.95;;;7.30;48.20;;;;;;5011992;28;20643;-49
2023/01/24 12:34:30;;;;;;;60.15;28.30;;;7.30;48.10;;;;;;5010457;28;20206;-49
2023/01/24 12:37:34;;;;;;;51.95;27.23;;;7.30;47.90;;;;;;5011945;28;20708;-49
2023/01/24 12:40:11;;;;;;;48.95;24.40;;;7.30;48.20;;;;;;5011819;28;20170;-48
2023/01/24 12:43:03;;;;;;;53.35;26.23;;;7.30;48.30;;;;;;5011920;28;20186;-49
2023/01/24 12:45:58;;;;;;;54.03;26.60;;;7.30;48.20;;;;;;5011538;28;20667;-49
2023/01/24 12:48:51;;;;;;;49.28;24.58;;;7.30;48.10;;;;;;5006337;28;20195;-50
2023/01/24 12:51:47;;;;;;;51.20;24.52;;;7.30;48.20;;;;;;5011851;28;20171;-50
2023/01/24 12:54:41;;;;;;;55.15;24.45;;;7.40;47.90;;;;;;5010613;28;20298;-50
2023/01/24 12:57:29;;;;;;;53.45;25.98;;;7.40;47.90;;;;;;5012658;28;20178;-50
2023/01/24 12:59:55;;;;;;;44.03;23.52;;;7.40;48.10;;;;;;5015198;28;20207;-49
2023/01/24 13:02:31;;;;;;;46.53;23.15;;;7.30;48.00;;;;;;5015456;28;20205;-50
2023/01/24 13:05:00;;;;;;;57.78;28.42;;;7.30;47.90;;;;;;5015092;28;20194;-50
2023/01/24 13:07:51;;;;;;;52.13;26.38;;;7.40;48.00;;;;;;5015166;28;20179;-49
2023/01/24 13:10:40;;;;;;;50.88;22.13;;;7.40;47.90;;;;;;5014936;28;20182;-49
2023/01/24 13:13:23;;;;;;;45.78;25.48;;;7.30;48.00;;;;;;5014910;28;20214;-49
2023/01/24 13:16:24;;;;;;;47.13;27.80;;;7.40;48.20;;;;;;5014709;28;20210;-50
2023/01/24 13:19:24;;;;;;;49.05;23.45;;;7.40;48.30;;;;;;5015079;28;20169;-49
2023/01/24 13:22:38;;;;;;;55.53;25.10;;;7.40;48.20;;;;;;5037320;22;20217;-52
2023/01/24 13:25:31;;;;;;;49.67;24.45;;;7.40;48.10;;;;;;5030728;28;20583;-52
2023/01/24 13:28:45;;;;;;;42.60;24.30;;;7.40;48.00;;;;;;5034669;28;20212;-51
2023/01/24 13:31:24;;;;;;;45.40;25.08;;;7.40;47.90;;;;;;5033563;28;20209;-52